• Join FlightAware (Why Join?)
  • Login
  • US Flag 
05:56AM EDT


 

Airport Tracker/Info


-or-


 

Live Flight TrackerFlight Track Log ✈ SWA655 ✈ 11-Apr-2013 ✈ KSFO - KLAX

Flight Track Log - Related Links

Times and Time Zones

All times are in EDT time to prevent confusion due to time zone crossing. See the SWA655 flight status page for this flight to view local times or setup timezone preferences in your user account.

Time Position Orientation Groundspeed Altitude Reporting Facility
EDT Latitude Longitude Course Direction KTS MPH feet Rate Location/Type
05:07PM 37.6167 -122.3833 136° Southeast 128 147 1,300  Level Northern Cal TRACON
05:07PM 37.6289 -122.4017 310° West 135 155 1,700 1,800 Climbing Oakland Center
05:08PM 37.6500 -122.4500 299° West 200 230 3,100 2,220 Climbing Northern Cal TRACON
05:09PM 37.6667 -122.5000 293° West 229 264 5,100 2,460 Climbing Northern Cal TRACON
05:10PM 37.6000 -122.5333 202° Southwest 298 343 8,100 2,760 Climbing Northern Cal TRACON
05:11PM 37.5747 -122.5150 150° Southeast 293 337 9,500 3,120 Climbing Oakland Center
05:12PM 37.5086 -122.4378 137° Southeast 332 382 12,800 3,480 Climbing Oakland Center
05:13PM 37.3651 -122.2448 136° Southeast  Level FlightAware Approximate
05:13PM 37.4428 -122.3464 132° Southeast 351 404 16,700  Level Oakland Center
05:14PM 37.3583 -122.2300 132° Southeast 375 432 20,100 2,580 Climbing Oakland Center
05:15PM 37.2803 -122.1250 133° Southeast 408 470 22,000 2,100 Climbing Oakland Center
05:16PM 37.1958 -122.0083 132° Southeast 446 513 24,500 2,280 Climbing Oakland Center
05:17PM 37.1081 -121.8906 133° Southeast 461 531 26,700 1,980 Climbing Oakland Center
05:18PM 37.0181 -121.7711 133° Southeast 469 540 28,600 1,800 Climbing Oakland Center
05:19PM 36.9258 -121.6494 133° Southeast 480 552 30,500 1,920 Climbing Oakland Center
05:20PM 36.8344 -121.5244 132° Southeast 487 560 32,600 1,920 Climbing Oakland Center
05:21PM 36.7397 -121.3975 133° Southeast 484 557 34,500 1,680 Climbing Oakland Center
05:22PM 36.6469 -121.2761 134° Southeast 484 557 36,100 1,200 Climbing Oakland Center
05:23PM 36.5536 -121.1525 133° Southeast 488 562 37,000 420 Climbing Oakland Center
05:24PM 36.4778 -120.9742 118° Southeast 500 575 37,000  Level Oakland Center
05:25PM 36.4608 -120.8011 97° East 505 581 37,000  Level Oakland Center
05:26PM 36.3692 -120.6742 132° Southeast 498 573 37,000  Level Oakland Center
05:27PM 36.2611 -120.5744 143° Southeast 486 559 37,000  Level Oakland Center
05:28PM 36.1525 -120.4717 143° Southeast 488 562 37,000  Level Oakland Center
05:29PM 36.0456 -120.3656 141° Southeast 491 565 37,000  Level Oakland Center
05:30PM 35.9394 -120.2617 142° Southeast 486 559 37,000  Level Oakland Center
05:31PM 35.8328 -120.1600 142° Southeast 483 556 37,000  Level Oakland Center
05:32PM 35.7275 -120.0558 141° Southeast 482 555 37,000  Level Oakland Center
05:33PM 35.6189 -119.9547 143° Southeast 485 558 37,000  Level Oakland Center
05:34PM 35.5097 -119.8586 144° Southeast 481 554 37,000  Level Oakland Center
05:35PM 35.3769 -119.7453 145° Southeast 481 554 37,000 -360 Level Oakland Center
05:36PM 35.2661 -119.6500 145° Southeast 483 556 36,300 -1,140 Descending Oakland Center
05:37PM 35.1539 -119.5539 145° Southeast 490 564 34,700 -2,340 Descending Oakland Center
05:38PM 35.0411 -119.4597 146° Southeast 490 564 31,600 -2,760 Descending Oakland Center
05:39PM 34.9300 -119.3636 145° Southeast 490 564 29,100 -2,520 Descending Oakland Center
05:40PM 34.8011 -119.2550 145° Southeast 475 547 26,200 -2,400 Descending Los Angeles Center
05:41PM 34.6981 -119.1689 146° Southeast 456 525 23,900 -2,160 Descending Los Angeles Center
05:42PM 34.6044 -119.0908 146° Southeast 437 503 21,800 -2,040 Descending Los Angeles Center
05:43PM 34.5111 -119.0114 145° Southeast 409 471 19,700 -2,100 Descending Los Angeles Center
05:45PM 34.4181 -118.9333 145° Southeast 403 464 17,500 -2,340 Descending Los Angeles Center
05:46PM 34.3058 -118.8628 153° Southeast 376 433 14,900 -2,280 Descending Los Angeles Center
05:47PM 34.2086 -118.8267 163° South 369 425 12,800 -1,560 Descending Los Angeles Center
05:48PM 34.1364 -118.8025 165° South 343 395 11,700 -1,260 Descending Los Angeles Center
05:49PM 34.0414 -118.7447 153° Southeast 292 336 10,200 -900 Descending Los Angeles Center
05:50PM 34.0294 -118.6586 99° East 266 306 9,900 -240 Descending Los Angeles Center
05:51PM 34.0208 -118.5717 97° East 240 276 9,700 -780 Descending Los Angeles Center
05:52PM 34.0133 -118.4950 97° East 230 265 8,300 -1,320 Descending Los Angeles Center
05:53PM 34.0128 -118.4197 90° East 227 261 7,000 -1,380 Descending Los Angeles Center
05:54PM 34.0192 -118.3436 84° East 226 260 5,500 -1,260 Descending Los Angeles Center
05:55PM 34.0261 -118.2669 84° East 229 264 4,400 -1,140 Descending Los Angeles Center
05:56PM 33.9917 -118.2325 140° Southeast 211 243 3,200 -1,200 Descending Los Angeles Center
05:57PM 33.9644 -118.2856 238° Southwest 205 236 2,000 -1,080 Descending Los Angeles Center
05:58PM 33.9581 -118.3522 263° West 180 207 1,000 -840 Descending Los Angeles Center
05:59PM 33.9533 -118.3953 262° West 149 171 300 -720 Descending Los Angeles Center
06:01PM 33.9333 -118.4000 252° West  Level FlightAware Approximate
06:08PM 33.9425 -118.4081 252° West  Level Estimated